Blenker, Wisconsin
Current Conditions -  °F | °C
As of 12:54 AM on Friday 31 Oct 2014 (Local Time) from KMFI Reporting Station
Overcast Overcast  
Wind Chill: 21°   Ceiling: 2600
Heat Index: 33°   Visibility: 10mi
Dew Point: 25°   Wind: 22mph
Humidity: 72%   Direction: 330°NNW
Pressure: 30.14"   Gusts: 35mph
Location:  44.61°N, 89.92°W
Report Text: KMFI 310554Z AUTO 33019G30KT 10SM OVC026 01/M04 A3014 RMK AO2 PK WND 33030/0546 SLP217 60000 T00061039 10067 20006 400890000 51009
Loading
Personal Weather Stations






























Interactive Weather Map
Tropical Storm Tracking
New forecast layout! Learn more

10-Day Weather Forecast

Advertisements
Track Severe Weather on mobile